createdAt,value
2018-07-23T00:00:32.143Z,101771.14
2018-07-23T00:03:04.103Z,101764.86
2018-07-23T00:05:38.734Z,101765.21
2018-07-23T00:08:08.927Z,101759.83
2018-07-23T00:10:41.434Z,101751.95
2018-07-23T00:13:14.145Z,101754.05
2018-07-23T00:15:45.577Z,101753.25
2018-07-23T00:18:15.608Z,101756.88
2018-07-23T00:20:50.396Z,101760.05
2018-07-23T00:23:23.463Z,101761.27
2018-07-23T00:25:58.327Z,101751.09
2018-07-23T00:28:29.999Z,101750.32
2018-07-23T00:31:02.927Z,101757.00
2018-07-23T00:33:34.739Z,101755.65
2018-07-23T00:36:07.875Z,101765.09
2018-07-23T00:38:39.394Z,101758.81
2018-07-23T00:41:12.779Z,101765.16
2018-07-23T00:43:47.557Z,101766.77
2018-07-23T00:46:17.762Z,101764.49
2018-07-23T00:48:49.325Z,101767.89
2018-07-23T00:51:22.595Z,101764.88
2018-07-23T00:53:57.343Z,101764.66
2018-07-23T00:56:31.993Z,101762.80
2018-07-23T00:59:04.993Z,101761.20
2018-07-23T01:01:38.913Z,101758.86
2018-07-23T01:04:10.664Z,101759.94
2018-07-23T01:06:45.519Z,101752.16
2018-07-23T01:09:17.022Z,101753.76
2018-07-23T01:11:51.163Z,101762.97
2018-07-23T01:14:22.759Z,101758.52
2018-07-23T01:16:56.028Z,101760.98
2018-07-23T01:19:27.647Z,101761.13
2018-07-23T01:21:57.603Z,101766.08
2018-07-23T01:24:27.233Z,101754.84
2018-07-23T01:27:01.007Z,101759.13
2018-07-23T01:29:34.059Z,101750.89
2018-07-23T01:32:07.095Z,101753.29
2018-07-23T01:34:39.479Z,101762.41
2018-07-23T01:37:09.534Z,101756.39
2018-07-23T01:39:41.333Z,101757.91
2018-07-23T01:42:12.915Z,101760.07
2018-07-23T01:44:43.462Z,101758.55
2018-07-23T01:47:16.508Z,101759.66
2018-07-23T01:49:51.167Z,101758.08
2018-07-23T01:52:25.750Z,101765.98
2018-07-23T01:54:58.879Z,101764.41
2018-07-23T01:57:30.539Z,101764.22
2018-07-23T02:00:02.476Z,101759.94
2018-07-23T02:02:35.049Z,101752.77
2018-07-23T02:05:08.314Z,101755.23
2018-07-23T02:07:41.367Z,101753.06
2018-07-23T02:10:12.895Z,101755.43
2018-07-23T02:12:45.002Z,101760.61
2018-07-23T02:15:16.741Z,101762.12
2018-07-23T02:17:50.220Z,101763.06
2018-07-23T02:20:21.765Z,101760.19
2018-07-23T02:22:54.773Z,101770.46
2018-07-23T02:25:29.329Z,101772.35
2018-07-23T02:28:00.897Z,101768.83
2018-07-23T02:30:33.990Z,101772.98
2018-07-23T02:33:03.949Z,101770.00
2018-07-23T02:35:39.067Z,101766.30
2018-07-23T02:38:10.741Z,101768.31
2018-07-23T02:40:42.947Z,101765.97
2018-07-23T02:43:14.418Z,101768.06
2018-07-23T02:45:46.290Z,101768.09
2018-07-23T02:48:17.807Z,101767.62
2018-07-23T02:50:51.076Z,101769.76
2018-07-23T02:53:25.839Z,101766.85
2018-07-23T02:55:58.992Z,101764.30
2018-07-23T02:58:33.107Z,101761.55
2018-07-23T03:01:04.324Z,101761.44
2018-07-23T03:03:34.228Z,101764.45
2018-07-23T03:06:08.983Z,101765.14
2018-07-23T03:08:43.802Z,101762.58
2018-07-23T03:11:16.836Z,101760.82
2018-07-23T03:13:49.855Z,101761.30
2018-07-23T03:16:21.937Z,101766.74
2018-07-23T03:18:53.532Z,101758.48
2018-07-23T03:21:25.282Z,101766.01
2018-07-23T03:23:58.515Z,101772.67
2018-07-23T03:26:30.077Z,101768.66
2018-07-23T03:29:00.175Z,101767.50
2018-07-23T03:31:33.287Z,101767.78
2018-07-23T03:34:06.327Z,101772.69
2018-07-23T03:36:37.804Z,101775.33
2018-07-23T03:39:14.361Z,101775.33
2018-07-23T03:41:49.041Z,101774.40
2018-07-23T03:44:22.960Z,101775.53
2018-07-23T03:46:56.531Z,101778.57
2018-07-23T03:49:29.687Z,101781.09
2018-07-23T03:52:02.139Z,101780.91
2018-07-23T03:54:35.251Z,101781.67
2018-07-23T03:57:06.833Z,101786.42
2018-07-23T03:59:40.207Z,101788.48
2018-07-23T04:02:14.371Z,101788.17
2018-07-23T04:04:46.807Z,101790.05
2018-07-23T04:07:19.052Z,101795.58
2018-07-23T04:09:49.144Z,101787.11
2018-07-23T04:12:22.368Z,101788.13
2018-07-23T04:14:53.828Z,101787.69
2018-07-23T04:17:27.249Z,101789.17
2018-07-23T04:20:00.326Z,101790.94
2018-07-23T04:22:32.029Z,101793.40
2018-07-23T04:25:03.217Z,101789.98
2018-07-23T04:27:36.287Z,101790.64
2018-07-23T04:30:10.887Z,101796.00
2018-07-23T04:32:45.375Z,101794.19
2018-07-23T04:35:18.420Z,101796.64
2018-07-23T04:37:51.391Z,101798.45
2018-07-23T04:40:24.746Z,101810.15
2018-07-23T04:42:56.310Z,101807.52
2018-07-23T04:45:31.201Z,101803.28
2018-07-23T04:48:01.723Z,101808.67
2018-07-23T04:50:31.747Z,101804.74
2018-07-23T04:53:01.748Z,101800.30
2018-07-23T04:55:33.253Z,101803.22
2018-07-23T04:58:06.289Z,101808.22
2018-07-23T05:00:39.216Z,101817.75
2018-07-23T05:03:10.779Z,101806.53
2018-07-23T05:05:43.941Z,101802.44
2018-07-23T05:08:16.978Z,101806.28
2018-07-23T05:10:48.554Z,101812.83
2018-07-23T05:13:21.049Z,101809.27
2018-07-23T05:15:54.087Z,101811.97
2018-07-23T05:18:26.964Z,101815.48
2018-07-23T05:20:58.444Z,101818.07
2018-07-23T05:23:31.411Z,101810.55
2018-07-23T05:26:01.408Z,101810.17
2018-07-23T05:28:34.320Z,101815.67
2018-07-23T05:31:04.436Z,101814.03
2018-07-23T05:33:35.915Z,101811.49
2018-07-23T05:36:10.478Z,101820.25
2018-07-23T05:38:41.320Z,101820.13
2018-07-23T05:41:14.146Z,101819.06
2018-07-23T05:43:47.098Z,101814.36
2018-07-23T05:46:20.171Z,101813.67
2018-07-23T05:48:52.410Z,101823.98
2018-07-23T05:51:24.063Z,101811.75
2018-07-23T05:53:55.629Z,101815.22
2018-07-23T05:56:27.237Z,101813.52
2018-07-23T05:58:58.872Z,101801.24
2018-07-23T06:01:31.811Z,101816.28
2018-07-23T06:04:05.552Z,101810.09
2018-07-23T06:06:37.322Z,101791.95
2018-07-23T06:09:12.764Z,101808.92
2018-07-23T06:11:44.434Z,101800.61
2018-07-23T06:14:17.350Z,101785.98
2018-07-23T06:16:48.868Z,101787.63
2018-07-23T06:19:19.697Z,101800.30
2018-07-23T06:21:54.401Z,101789.81
2018-07-23T06:24:26.023Z,101799.69
2018-07-23T06:26:58.948Z,101799.55
2018-07-23T06:29:31.988Z,101808.58
2018-07-23T06:32:04.844Z,101804.86
2018-07-23T06:34:37.930Z,101807.78
2018-07-23T06:37:11.052Z,101812.38
2018-07-23T06:39:44.090Z,101808.72
2018-07-23T06:42:18.399Z,101806.97
2018-07-23T06:44:51.400Z,101804.48
2018-07-23T06:47:23.125Z,101806.67
2018-07-23T06:49:54.724Z,101808.73
2018-07-23T06:52:24.699Z,101801.78
2018-07-23T06:54:59.153Z,101809.97
2018-07-23T06:57:30.835Z,101821.26
2018-07-23T07:00:03.721Z,101815.28
2018-07-23T07:02:38.244Z,101813.84
2018-07-23T07:05:09.610Z,101816.45
2018-07-23T07:07:42.632Z,101823.13
2018-07-23T07:10:15.676Z,101807.95
2018-07-23T07:12:45.537Z,101809.47
2018-07-23T07:15:18.631Z,101808.78
2018-07-23T07:17:50.060Z,101808.10
2018-07-23T07:20:20.632Z,101800.79
2018-07-23T07:22:53.549Z,101804.66
2018-07-23T07:25:25.439Z,101801.73
2018-07-23T07:27:58.267Z,101793.70
2018-07-23T07:30:32.651Z,101794.80
2018-07-23T07:33:05.566Z,101804.83
2018-07-23T07:35:35.479Z,101795.13
2018-07-23T07:38:07.186Z,101806.51
2018-07-23T07:40:36.920Z,101803.27
2018-07-23T07:43:08.898Z,101794.77
2018-07-23T07:45:42.216Z,101801.89
2018-07-23T07:48:12.354Z,101791.95
2018-07-23T07:50:45.348Z,101799.09
2018-07-23T07:53:16.848Z,101801.86
2018-07-23T07:55:48.228Z,101806.22
2018-07-23T07:58:21.151Z,101799.80
2018-07-23T08:00:54.020Z,101799.80
2018-07-23T08:03:27.041Z,101793.53
2018-07-23T08:05:58.490Z,101805.67
2018-07-23T08:08:28.841Z,101802.89
2018-07-23T08:11:03.170Z,101808.81
2018-07-23T08:13:37.655Z,101796.39
2018-07-23T08:16:12.000Z,101805.92
2018-07-23T08:18:45.328Z,101798.78
2018-07-23T08:21:18.421Z,101786.19
2018-07-23T08:24:36.819Z,101799.61
2018-07-23T08:27:09.953Z,101807.61
2018-07-23T08:29:39.924Z,101793.37
2018-07-23T08:32:14.495Z,101798.36
2018-07-23T08:34:45.838Z,101791.30
2018-07-23T08:37:19.049Z,101787.42
2018-07-23T08:39:50.563Z,101788.41
2018-07-23T08:42:24.412Z,101794.44
2018-07-23T08:44:57.822Z,101794.89
2018-07-23T08:47:27.757Z,101805.97
2018-07-23T08:49:59.169Z,101796.45
2018-07-23T08:52:30.601Z,101789.92
2018-07-23T08:55:03.629Z,101786.61
2018-07-23T08:57:34.992Z,101795.20
2018-07-23T09:00:07.854Z,101784.77
2018-07-23T09:02:41.214Z,101788.04
2018-07-23T09:05:14.586Z,101798.16
2018-07-23T09:07:47.461Z,101789.02
2018-07-23T09:10:19.668Z,101809.27
2018-07-23T09:12:51.130Z,101788.32
2018-07-23T09:15:22.837Z,101793.70
2018-07-23T09:17:55.708Z,101812.52
2018-07-23T09:20:27.287Z,101811.66
2018-07-23T09:22:57.196Z,101810.03
2018-07-23T09:25:46.543Z,101816.54
2018-07-23T09:28:20.361Z,101811.02
2018-07-23T09:30:58.610Z,101808.67
2018-07-23T09:33:30.145Z,101816.61
2018-07-23T09:36:00.904Z,101809.80
2018-07-23T09:38:34.073Z,101818.58
2018-07-23T09:41:06.994Z,101805.91
2018-07-23T09:43:38.392Z,101817.88
2018-07-23T09:46:10.143Z,101809.09
2018-07-23T09:48:41.627Z,101804.54
2018-07-23T09:51:12.994Z,101799.80
2018-07-23T09:53:44.427Z,101806.89
2018-07-23T09:56:14.421Z,101803.20
2018-07-23T09:58:45.804Z,101812.59
2018-07-23T10:01:20.880Z,101802.20
2018-07-23T10:03:53.969Z,101798.30
2018-07-23T10:06:25.354Z,101791.62
2018-07-23T10:08:56.094Z,101792.75
2018-07-23T10:11:28.229Z,101792.20
2018-07-23T10:13:59.651Z,101795.38
2018-07-23T10:16:34.120Z,101801.38
2018-07-23T10:19:07.248Z,101789.06
2018-07-23T10:21:38.730Z,101790.03
2018-07-23T10:24:10.286Z,101788.49
2018-07-23T10:26:41.661Z,101787.09
2018-07-23T10:29:11.673Z,101780.05
2018-07-23T10:31:43.667Z,101783.30
2018-07-23T10:34:16.309Z,101783.06
2018-07-23T10:36:46.774Z,101779.46
2018-07-23T10:39:16.800Z,101774.75
2018-07-23T10:41:48.264Z,101772.72
2018-07-23T10:44:18.670Z,101769.64
2018-07-23T10:46:50.091Z,101772.94
2018-07-23T10:49:22.974Z,101771.58
2018-07-23T10:51:57.371Z,101765.79
2018-07-23T10:54:28.230Z,101762.02
2018-07-23T10:57:00.370Z,101757.94
2018-07-23T10:59:32.302Z,101757.13
2018-07-23T11:02:05.126Z,101752.65
2018-07-23T11:04:35.134Z,101752.67
2018-07-23T11:07:08.102Z,101755.93
2018-07-23T11:09:39.539Z,101751.56
2018-07-23T11:12:12.536Z,101754.64
2018-07-23T11:14:45.477Z,101747.77
2018-07-23T11:17:17.123Z,101763.20
2018-07-23T11:19:49.729Z,101762.69
2018-07-23T11:22:24.016Z,101757.78
2018-07-23T11:24:57.393Z,101746.05
2018-07-23T11:27:30.062Z,101744.30
2018-07-23T11:30:02.902Z,101758.14
2018-07-23T11:32:36.076Z,101757.70
2018-07-23T11:35:09.091Z,101756.15
2018-07-23T11:37:42.010Z,101752.92
2018-07-23T11:40:13.410Z,101748.86
2018-07-23T11:42:43.441Z,101760.09
2018-07-23T11:45:13.519Z,101757.81
2018-07-23T11:47:43.539Z,101762.17
2018-07-23T11:50:16.451Z,101769.98
2018-07-23T11:52:47.983Z,101767.26
2018-07-23T11:55:21.788Z,101763.84
2018-07-23T11:57:54.742Z,101754.70
2018-07-23T12:00:27.784Z,101759.25
2018-07-23T12:03:02.406Z,101762.63
2018-07-23T12:05:33.319Z,101751.45
2018-07-23T12:08:06.137Z,101751.17
2018-07-23T12:10:36.946Z,101752.05
2018-07-23T12:13:08.432Z,101754.81
2018-07-23T12:15:39.859Z,101749.61
2018-07-23T12:18:13.357Z,101743.48
2018-07-23T12:20:44.778Z,101745.94
2018-07-23T12:23:16.134Z,101755.63
2018-07-23T12:25:49.149Z,101744.47
2018-07-23T12:28:20.646Z,101737.56
2018-07-23T12:30:53.252Z,101740.38
2018-07-23T12:33:23.249Z,101744.69
2018-07-23T12:35:56.173Z,101742.76
2018-07-23T12:38:26.240Z,101746.47
2018-07-23T12:40:58.223Z,101744.98
2018-07-23T12:43:28.648Z,101739.05
2018-07-23T12:46:01.525Z,101737.67
2018-07-23T12:48:32.115Z,101737.31
2018-07-23T12:51:04.932Z,101756.45
2018-07-23T12:53:37.990Z,101769.22
2018-07-23T12:56:09.677Z,101779.99
2018-07-23T12:58:39.571Z,101778.16
2018-07-23T13:01:12.681Z,101779.20
2018-07-23T13:03:46.046Z,101774.05
2018-07-23T13:06:18.299Z,101773.25
2018-07-23T13:08:49.068Z,101766.14
2018-07-23T13:11:22.090Z,101770.50
2018-07-23T13:13:53.183Z,101766.24
2018-07-23T13:16:26.119Z,101773.29
2018-07-23T13:18:57.681Z,101769.83
2018-07-23T13:21:29.305Z,101774.78
2018-07-23T13:24:02.270Z,101762.86
2018-07-23T13:26:33.649Z,101772.94
2018-07-23T13:29:05.018Z,101767.00
2018-07-23T13:31:38.092Z,101769.98
2018-07-23T13:34:09.415Z,101771.59
2018-07-23T13:36:43.997Z,101767.12
2018-07-23T13:39:15.580Z,101772.42
2018-07-23T13:41:45.599Z,101769.63
2018-07-23T13:44:17.057Z,101770.78
2018-07-23T13:46:48.609Z,101768.75
2018-07-23T13:49:21.496Z,101765.80
2018-07-23T13:51:53.125Z,101768.66
2018-07-23T13:54:24.079Z,101765.63
2018-07-23T13:56:58.306Z,101762.61
2018-07-23T13:59:30.324Z,101757.01
2018-07-23T14:01:59.512Z,101755.70
2018-07-23T14:04:28.865Z,101758.16
2018-07-23T14:07:03.324Z,101756.27
2018-07-23T14:09:36.239Z,101749.88
2018-07-23T14:12:07.790Z,101748.34
2018-07-23T14:14:37.856Z,101746.97
2018-07-23T14:17:09.245Z,101735.76
2018-07-23T14:19:40.713Z,101736.47
2018-07-23T14:22:13.733Z,101742.06
2018-07-23T14:24:46.654Z,101745.28
2018-07-23T14:27:18.231Z,101744.92
2018-07-23T14:29:52.647Z,101742.05
2018-07-23T14:32:28.017Z,101743.36
2018-07-23T14:35:01.083Z,101736.78
2018-07-23T14:37:33.293Z,101739.50
2018-07-23T14:40:06.391Z,101733.14
2018-07-23T14:42:37.776Z,101725.74
2018-07-23T14:45:10.215Z,101723.91
2018-07-23T14:47:41.753Z,101714.87
2018-07-23T14:50:15.369Z,101726.30
2018-07-23T14:52:47.910Z,101728.19
2018-07-23T14:55:20.956Z,101725.59
2018-07-23T14:57:50.970Z,101719.50
2018-07-23T15:00:24.295Z,101722.34
2018-07-23T15:02:56.602Z,101720.84
2018-07-23T15:05:26.552Z,101716.30
2018-07-23T15:07:57.943Z,101716.36
2018-07-23T15:10:32.405Z,101722.77
2018-07-23T15:13:05.283Z,101720.55
2018-07-23T15:15:38.704Z,101720.92
2018-07-23T15:18:10.745Z,101717.75
2018-07-23T15:20:41.176Z,101716.37
2018-07-23T15:23:14.121Z,101717.16
2018-07-23T15:25:47.610Z,101717.34
2018-07-23T15:28:19.264Z,101721.17
2018-07-23T15:30:52.117Z,101725.64
2018-07-23T15:33:25.498Z,101719.20
2018-07-23T15:35:56.002Z,101723.54
2018-07-23T15:38:29.028Z,101721.15
2018-07-23T15:41:03.579Z,101729.01
2018-07-23T15:43:37.073Z,101724.34
2018-07-23T15:46:08.631Z,101717.39
2018-07-23T15:55:11.445Z,101715.95
2018-07-23T15:57:35.440Z,101708.38
2018-07-23T16:00:07.636Z,101701.70
2018-07-23T16:03:22.635Z,101698.22
2018-07-23T16:05:55.518Z,101704.09
2018-07-23T16:08:25.337Z,101703.45
2018-07-23T16:10:58.189Z,101701.52
2018-07-23T16:13:31.111Z,101698.23
2018-07-23T16:16:00.234Z,101693.09
2018-07-23T16:18:33.330Z,101686.69
2018-07-23T16:21:02.604Z,101693.16
2018-07-23T16:23:35.336Z,101693.88
2018-07-23T16:26:06.273Z,101698.19
2018-07-23T16:28:38.602Z,101692.94
2018-07-23T16:31:10.203Z,101688.95
2018-07-23T16:33:40.139Z,101688.23
2018-07-23T16:36:13.071Z,101687.77
2018-07-23T16:38:44.433Z,101686.98
2018-07-23T16:41:15.766Z,101689.95
2018-07-23T16:43:47.702Z,101688.06
2018-07-23T16:46:21.122Z,101687.94
2018-07-23T16:48:51.159Z,101687.87
2018-07-23T16:51:21.110Z,101686.41
2018-07-23T16:53:52.298Z,101683.67
2018-07-23T16:56:24.393Z,101686.03
2018-07-23T16:58:54.336Z,101690.67
2018-07-23T17:01:25.245Z,101691.50
2018-07-23T17:03:56.823Z,101684.36
2018-07-23T17:06:28.677Z,101686.03
2018-07-23T17:09:00.433Z,101682.70
2018-07-23T17:11:34.669Z,101680.14
2018-07-23T17:14:07.523Z,101685.27
2018-07-23T17:16:37.539Z,101687.27
2018-07-23T17:19:10.677Z,101684.88
2018-07-23T17:21:41.554Z,101679.70
2018-07-23T17:24:12.888Z,101685.72
2018-07-23T17:26:47.427Z,101677.11
2018-07-23T17:29:21.190Z,101682.00
2018-07-23T17:31:52.087Z,101682.96
2018-07-23T17:34:24.263Z,101686.04
2018-07-23T17:36:55.646Z,101687.05
2018-07-23T17:39:27.066Z,101681.43
2018-07-23T17:41:56.192Z,101682.46
2018-07-23T17:44:27.109Z,101685.03
2018-07-23T17:46:58.854Z,101686.09
2018-07-23T17:49:31.882Z,101685.51
2018-07-23T17:52:03.428Z,101685.51
2018-07-23T17:54:35.477Z,101692.18
2018-07-23T17:57:08.877Z,101690.31
2018-07-23T17:59:41.822Z,101682.27
2018-07-23T18:02:14.725Z,101682.05
2018-07-23T18:04:47.475Z,101691.35
2018-07-23T18:07:17.323Z,101690.69
2018-07-23T18:09:50.116Z,101692.40
2018-07-23T18:12:22.718Z,101699.98
2018-07-23T18:14:53.065Z,101701.28
2018-07-23T18:17:26.137Z,101694.69
2018-07-23T18:19:58.936Z,101695.72
2018-07-23T18:22:30.255Z,101702.67
2018-07-23T18:25:01.781Z,101695.67
2018-07-23T18:27:35.616Z,101702.81
2018-07-23T18:30:10.489Z,101703.35
2018-07-23T18:32:41.999Z,101700.37
2018-07-23T18:35:14.841Z,101707.05
2018-07-23T18:37:46.773Z,101709.27
2018-07-23T18:40:18.280Z,101707.33
2018-07-23T18:42:48.942Z,101711.83
2018-07-23T18:45:19.192Z,101710.63
2018-07-23T18:47:52.075Z,101713.28
2018-07-23T18:50:25.182Z,101715.06
2018-07-23T18:52:57.982Z,101713.53
2018-07-23T18:55:30.803Z,101716.14
2018-07-23T18:58:02.778Z,101717.51
2018-07-23T19:00:34.829Z,101719.03
2018-07-23T19:03:05.249Z,101714.14
2018-07-23T19:05:35.681Z,101714.63
2018-07-23T19:08:06.407Z,101715.84
2018-07-23T19:10:35.749Z,101708.84
2018-07-23T19:13:08.625Z,101714.96
2018-07-23T19:15:39.408Z,101718.48
2018-07-23T19:18:10.927Z,101712.78
2018-07-23T19:20:40.784Z,101716.17
2018-07-23T19:23:15.119Z,101716.33
2018-07-23T19:25:45.867Z,101716.41
2018-07-23T19:28:17.431Z,101718.48
2018-07-23T19:30:47.389Z,101718.36
2018-07-23T19:33:19.331Z,101723.47
2018-07-23T19:35:50.786Z,101723.62
2018-07-23T19:38:23.731Z,101721.97
2018-07-23T19:40:53.755Z,101723.44
2018-07-23T19:43:25.068Z,101726.58
2018-07-23T19:45:55.424Z,101728.83
2018-07-23T19:48:27.638Z,101723.38
2018-07-23T19:51:01.310Z,101725.72
2018-07-23T19:53:34.565Z,101732.44
2018-07-23T19:56:07.132Z,101736.86
2018-07-23T19:58:41.449Z,101730.20
2018-07-23T20:01:14.464Z,101740.55
2018-07-23T20:03:44.457Z,101742.03
2018-07-23T20:06:13.553Z,101742.99
2018-07-23T20:08:43.753Z,101744.46
2018-07-23T20:11:12.966Z,101747.66
2018-07-23T20:13:45.824Z,101746.02
2018-07-23T20:16:17.417Z,101750.38
2018-07-23T20:18:48.873Z,101746.63
2018-07-23T20:21:23.208Z,101751.34
2018-07-23T20:23:56.222Z,101748.69
2018-07-23T20:26:26.652Z,101746.75
2018-07-23T20:29:00.856Z,101749.56
2018-07-23T20:31:33.161Z,101749.98
2018-07-23T20:34:04.877Z,101747.46
2018-07-23T20:36:34.849Z,101751.08
2018-07-23T20:39:06.422Z,101751.17
2018-07-23T20:41:37.261Z,101752.63
2018-07-23T20:44:10.219Z,101749.64
2018-07-23T20:46:43.420Z,101746.69
2018-07-23T20:49:16.796Z,101749.39
2018-07-23T20:51:49.909Z,101757.02
2018-07-23T20:54:21.024Z,101755.67
2018-07-23T20:56:52.435Z,101752.68
2018-07-23T20:59:24.945Z,101747.31
2018-07-23T21:01:58.276Z,101753.73
2018-07-23T21:04:31.293Z,101750.12
2018-07-23T21:07:02.812Z,101755.67
2018-07-23T21:09:35.968Z,101752.77
2018-07-23T21:12:09.553Z,101751.05
2018-07-23T21:14:40.451Z,101754.45
2018-07-23T21:17:14.108Z,101756.18
2018-07-23T21:19:47.118Z,101758.59
2018-07-23T21:22:20.700Z,101759.10
2018-07-23T21:24:52.133Z,101756.20
2018-07-23T21:27:23.566Z,101762.83
2018-07-23T21:29:55.547Z,101769.04
2018-07-23T21:32:28.728Z,101769.08
2018-07-23T21:35:00.048Z,101768.78
2018-07-23T21:37:31.767Z,101766.25
2018-07-23T21:40:05.107Z,101765.16
2018-07-23T21:42:35.249Z,101772.17
2018-07-23T21:45:05.378Z,101768.76
2018-07-23T21:47:40.250Z,101765.14
2018-07-23T21:50:13.191Z,101759.33
2018-07-23T21:52:44.773Z,101759.45
2018-07-23T21:55:16.288Z,101757.43
2018-07-23T21:57:48.826Z,101761.09
2018-07-23T22:00:18.848Z,101765.30
2018-07-23T22:02:50.265Z,101767.89
2018-07-23T22:05:23.045Z,101765.97
2018-07-23T22:07:55.839Z,101767.11
2018-07-23T22:10:30.176Z,101762.84
2018-07-23T22:13:03.317Z,101766.06
2018-07-23T22:15:33.868Z,101760.25
2018-07-23T22:18:07.064Z,101763.45
2018-07-23T22:20:39.362Z,101760.33
2018-07-23T22:23:10.752Z,101761.78
2018-07-23T22:25:42.191Z,101764.50
2018-07-23T22:28:15.122Z,101761.75
2018-07-23T22:30:46.334Z,101758.16
2018-07-23T22:33:16.303Z,101754.41
2018-07-23T22:35:50.691Z,101765.13
2018-07-23T22:38:25.383Z,101762.35
2018-07-23T22:40:57.570Z,101768.50
2018-07-23T22:43:28.922Z,101760.97
2018-07-23T22:46:00.680Z,101759.63
2018-07-23T22:48:33.584Z,101760.47
2018-07-23T22:51:06.727Z,101761.78
2018-07-23T22:53:39.609Z,101760.77
2018-07-23T22:56:11.046Z,101759.78
2018-07-23T22:58:43.248Z,101763.17
2018-07-23T23:01:17.117Z,101761.42
2018-07-23T23:03:49.177Z,101754.27
2018-07-23T23:06:19.828Z,101755.89
2018-07-23T23:08:52.689Z,101752.19
2018-07-23T23:11:24.153Z,101751.59
2018-07-23T23:13:56.145Z,101749.44
2018-07-23T23:16:26.618Z,101749.28
2018-07-23T23:18:59.524Z,101748.52
2018-07-23T23:21:30.964Z,101749.38
2018-07-23T23:24:03.872Z,101744.97
2018-07-23T23:26:35.348Z,101741.42
2018-07-23T23:29:08.394Z,101739.05
2018-07-23T23:31:41.304Z,101736.05
2018-07-23T23:34:14.196Z,101737.11
2018-07-23T23:36:47.242Z,101732.80
2018-07-23T23:39:16.470Z,101733.44
2018-07-23T23:41:50.835Z,101732.03
2018-07-23T23:44:22.319Z,101728.42
2018-07-23T23:46:55.327Z,101730.16
2018-07-23T23:49:29.228Z,101726.36
2018-07-23T23:52:02.684Z,101727.94
2018-07-23T23:54:35.596Z,101729.59
2018-07-23T23:57:08.513Z,101723.41
2018-07-23T23:59:39.291Z,101722.98
